createdAt,value
2018-04-11T00:02:25.072Z,10.10
2018-04-11T00:04:52.572Z,10.10
2018-04-11T00:07:20.047Z,10.10
2018-04-11T00:09:47.525Z,10.20
2018-04-11T00:12:14.995Z,10.30
2018-04-11T00:14:42.519Z,10.30
2018-04-11T00:17:10.772Z,10.30
2018-04-11T00:19:38.291Z,10.30
2018-04-11T00:22:05.792Z,10.40
2018-04-11T00:24:33.267Z,10.40
2018-04-11T00:27:01.525Z,10.50
2018-04-11T00:29:29.110Z,10.50
2018-04-11T00:31:57.358Z,10.50
2018-04-11T00:34:25.166Z,10.50
2018-04-11T00:36:52.621Z,10.50
2018-04-11T00:39:20.166Z,10.50
2018-04-11T00:41:47.688Z,10.50
2018-04-11T00:44:15.956Z,10.40
2018-04-11T00:46:43.435Z,10.40
2018-04-11T00:49:11.740Z,10.50
2018-04-11T00:51:39.242Z,10.40
2018-04-11T00:54:08.225Z,10.40
2018-04-11T00:56:35.791Z,10.40
2018-04-11T00:59:03.280Z,10.40
2018-04-11T01:01:30.835Z,10.30
2018-04-11T01:03:58.368Z,10.30
2018-04-11T01:06:25.871Z,10.20
2018-04-11T01:08:53.386Z,10.20
2018-04-11T01:11:20.895Z,10.10
2018-04-11T01:13:48.389Z,10.10
2018-04-11T01:16:15.922Z,10.00
2018-04-11T01:18:43.488Z,10.00
2018-04-11T01:21:10.987Z,9.90
2018-04-11T01:23:39.368Z,9.80
2018-04-11T01:26:06.916Z,9.80
2018-04-11T01:28:35.293Z,9.80
2018-04-11T01:31:03.524Z,9.80
2018-04-11T01:33:31.025Z,9.70
2018-04-11T01:35:59.374Z,9.80
2018-04-11T01:38:27.742Z,9.70
2018-04-11T01:40:55.218Z,9.70
2018-04-11T01:43:23.478Z,9.70
2018-04-11T01:45:51.035Z,9.70
2018-04-11T01:48:18.516Z,9.70
2018-04-11T01:50:46.798Z,9.70
2018-04-11T01:53:14.310Z,9.70
2018-04-11T01:55:41.871Z,9.80
2018-04-11T01:58:09.471Z,9.80
2018-04-11T02:00:36.957Z,9.80
2018-04-11T02:03:04.458Z,9.70
2018-04-11T02:05:31.935Z,9.70
2018-04-11T02:08:00.201Z,9.60
2018-04-11T02:10:28.578Z,9.70
2018-04-11T02:12:56.027Z,9.60
2018-04-11T02:15:24.277Z,9.70
2018-04-11T02:17:51.796Z,9.60
2018-04-11T02:20:19.286Z,9.70
2018-04-11T02:22:46.772Z,9.70
2018-04-11T02:25:14.245Z,9.70
2018-04-11T02:27:41.776Z,9.70
2018-04-11T02:30:09.253Z,9.80
2018-04-11T02:32:37.528Z,9.70
2018-04-11T02:35:05.788Z,9.70
2018-04-11T02:37:34.116Z,9.60
2018-04-11T02:40:01.826Z,9.60
2018-04-11T02:42:29.332Z,9.60
2018-04-11T02:44:56.837Z,9.60
2018-04-11T02:47:25.097Z,9.60
2018-04-11T02:49:52.681Z,9.50
2018-04-11T02:52:21.039Z,9.50
2018-04-11T02:54:48.600Z,9.50
2018-04-11T02:57:16.096Z,9.50
2018-04-11T02:59:43.608Z,9.50
2018-04-11T03:02:11.179Z,9.60
2018-04-11T03:04:39.431Z,9.60
2018-04-11T03:07:06.896Z,9.60
2018-04-11T03:09:35.213Z,9.70
2018-04-11T03:12:02.722Z,9.70
2018-04-11T03:14:30.258Z,9.70
2018-04-11T03:16:57.726Z,9.80
2018-04-11T03:19:25.269Z,9.90
2018-04-11T03:21:52.877Z,9.90
2018-04-11T03:24:20.305Z,10.00
2018-04-11T03:26:47.853Z,10.10
2018-04-11T03:29:15.294Z,10.20
2018-04-11T03:31:42.829Z,10.30
2018-04-11T03:34:10.309Z,10.40
2018-04-11T03:36:37.872Z,10.40
2018-04-11T03:39:05.337Z,10.50
2018-04-11T03:41:32.889Z,10.50
2018-04-11T03:44:00.440Z,10.50
2018-04-11T03:46:28.002Z,10.50
2018-04-11T03:48:55.569Z,10.50
2018-04-11T03:51:23.124Z,10.50
2018-04-11T03:53:52.094Z,10.40
2018-04-11T03:56:19.535Z,10.40
2018-04-11T03:58:47.009Z,10.40
2018-04-11T04:01:14.601Z,10.40
2018-04-11T04:03:42.129Z,10.40
2018-04-11T04:06:09.572Z,10.40
2018-04-11T04:08:37.811Z,10.40
2018-04-11T04:11:05.284Z,10.40
2018-04-11T04:13:44.893Z,10.40
2018-04-11T04:16:24.285Z,10.40
2018-04-11T04:19:03.693Z,10.40
2018-04-11T04:21:31.188Z,10.40
2018-04-11T04:23:58.633Z,10.40
2018-04-11T04:26:26.092Z,10.50
2018-04-11T04:28:53.657Z,10.50
2018-04-11T04:31:21.206Z,10.50
2018-04-11T04:33:48.662Z,10.50
2018-04-11T04:36:16.118Z,10.50
2018-04-11T04:38:43.594Z,10.50
2018-04-11T04:41:11.131Z,10.60
2018-04-11T04:43:38.582Z,10.60
2018-04-11T04:46:06.117Z,10.60
2018-04-11T04:48:33.589Z,10.60
2018-04-11T04:51:01.034Z,10.60
2018-04-11T04:53:28.607Z,10.60
2018-04-11T04:55:56.150Z,10.60
2018-04-11T04:58:23.626Z,10.70
2018-04-11T05:00:51.102Z,10.70
2018-04-11T05:03:18.641Z,10.70
2018-04-11T05:05:46.230Z,10.80
2018-04-11T05:08:14.576Z,10.80
2018-04-11T05:10:42.109Z,10.80
2018-04-11T05:13:09.692Z,10.80
2018-04-11T05:15:37.174Z,10.70
2018-04-11T05:18:04.705Z,10.80
2018-04-11T05:20:32.246Z,10.80
2018-04-11T05:22:59.748Z,10.80
2018-04-11T05:25:28.004Z,10.80
2018-04-11T05:27:55.447Z,10.80
2018-04-11T05:30:22.994Z,10.80
2018-04-11T05:32:50.477Z,10.80
2018-04-11T05:35:19.045Z,10.80
2018-04-11T05:37:46.489Z,10.90
2018-04-11T05:40:13.972Z,10.90
2018-04-11T05:42:42.918Z,10.90
2018-04-11T05:45:10.365Z,10.90
2018-04-11T05:47:37.819Z,10.90
2018-04-11T05:50:05.281Z,10.90
2018-04-11T05:52:32.739Z,10.90
2018-04-11T05:55:01.137Z,10.90
2018-04-11T05:57:28.606Z,11.00
2018-04-11T05:59:56.160Z,11.00
2018-04-11T06:02:25.115Z,11.10
2018-04-11T06:04:52.588Z,11.10
2018-04-11T06:07:20.867Z,11.20
2018-04-11T06:09:48.334Z,11.20
2018-04-11T06:12:15.809Z,11.20
2018-04-11T06:14:43.258Z,11.30
2018-04-11T06:17:10.794Z,11.20
2018-04-11T06:19:39.032Z,11.20
2018-04-11T06:22:07.175Z,11.30
2018-04-11T06:24:35.405Z,11.30
2018-04-11T06:27:02.869Z,11.30
2018-04-11T06:29:30.421Z,11.30
2018-04-11T06:31:57.954Z,11.30
2018-04-11T06:34:25.442Z,11.30
2018-04-11T06:36:52.997Z,11.30
2018-04-11T06:39:20.456Z,11.30
2018-04-11T06:41:47.948Z,11.40
2018-04-11T06:44:16.182Z,11.50
2018-04-11T06:46:43.742Z,11.50
2018-04-11T06:49:11.181Z,11.60
2018-04-11T06:51:38.832Z,11.70
2018-04-11T06:54:06.262Z,11.70
2018-04-11T06:56:34.499Z,11.70
2018-04-11T06:59:02.074Z,11.80
2018-04-11T07:01:29.537Z,11.80
2018-04-11T07:03:57.769Z,11.90
2018-04-11T07:06:25.232Z,11.90
2018-04-11T07:08:52.942Z,11.90
2018-04-11T07:11:21.180Z,12.10
2018-04-11T07:13:48.727Z,12.10
2018-04-11T07:16:16.276Z,12.10
2018-04-11T07:18:43.737Z,12.20
2018-04-11T07:21:11.293Z,12.30
2018-04-11T07:23:38.841Z,12.20
2018-04-11T07:26:06.309Z,12.20
2018-04-11T07:28:33.862Z,12.20
2018-04-11T07:31:01.418Z,12.10
2018-04-11T07:33:28.871Z,12.00
2018-04-11T07:35:56.336Z,12.10
2018-04-11T07:38:23.895Z,12.20
2018-04-11T07:40:51.388Z,12.30
2018-04-11T07:43:19.605Z,12.60
2018-04-11T07:45:47.079Z,12.60
2018-04-11T07:48:14.540Z,12.80
2018-04-11T07:50:42.097Z,12.90
2018-04-11T07:53:09.674Z,13.20
2018-04-11T07:55:37.203Z,13.40
2018-04-11T07:58:04.667Z,13.50
2018-04-11T08:00:32.133Z,13.40
2018-04-11T08:02:59.597Z,13.50
2018-04-11T08:05:27.816Z,13.50
2018-04-11T08:07:55.310Z,13.40
2018-04-11T08:10:22.853Z,13.30
2018-04-11T08:12:50.425Z,13.20
2018-04-11T08:15:17.869Z,13.30
2018-04-11T08:17:45.328Z,13.50
2018-04-11T08:20:12.857Z,13.70
2018-04-11T08:22:40.307Z,13.90
2018-04-11T08:25:07.794Z,14.10
2018-04-11T08:27:35.253Z,14.40
2018-04-11T08:30:02.807Z,14.50
2018-04-11T08:32:30.253Z,14.70
2018-04-11T08:34:57.717Z,14.80
2018-04-11T08:37:25.195Z,14.80
2018-04-11T08:39:52.733Z,14.80
2018-04-11T08:42:20.285Z,14.80
2018-04-11T08:44:47.853Z,14.80
2018-04-11T08:47:15.399Z,14.80
2018-04-11T08:49:42.861Z,14.70
2018-04-11T08:52:10.358Z,14.70
2018-04-11T08:54:38.626Z,14.80
2018-04-11T08:57:06.833Z,14.80
2018-04-11T08:59:34.297Z,14.80
2018-04-11T09:02:01.743Z,14.80
2018-04-11T09:04:29.257Z,14.70
2018-04-11T09:06:56.811Z,14.70
2018-04-11T09:09:24.350Z,14.70
2018-04-11T09:11:51.822Z,14.90
2018-04-11T09:14:19.352Z,15.00
2018-04-11T09:16:46.840Z,14.90
2018-04-11T09:19:14.415Z,14.70
2018-04-11T09:21:42.648Z,15.00
2018-04-11T09:24:10.110Z,14.90
2018-04-11T09:26:37.659Z,15.00
2018-04-11T09:29:05.117Z,15.00
2018-04-11T09:31:32.578Z,15.10
2018-04-11T09:34:00.089Z,15.30
2018-04-11T09:36:27.583Z,15.30
2018-04-11T09:38:55.063Z,15.40
2018-04-11T09:41:22.524Z,15.70
2018-04-11T09:43:49.958Z,15.80
2018-04-11T09:46:17.533Z,16.00
2018-04-11T09:48:45.764Z,16.50
2018-04-11T09:51:13.222Z,16.40
2018-04-11T09:53:40.690Z,16.70
2018-04-11T09:56:08.163Z,17.10
2018-04-11T09:58:35.724Z,17.20
2018-04-11T10:01:04.922Z,17.70
2018-04-11T10:03:32.394Z,17.70
2018-04-11T10:06:00.631Z,18.20
2018-04-11T10:08:28.091Z,18.20
2018-04-11T10:10:55.570Z,18.60
2018-04-11T10:13:24.560Z,19.00
2018-04-11T10:15:52.069Z,18.90
2018-04-11T10:18:19.495Z,18.90
2018-04-11T10:20:46.983Z,18.40
2018-04-11T10:23:14.427Z,18.10
2018-04-11T10:25:41.921Z,17.80
2018-04-11T10:28:09.376Z,17.40
2018-04-11T10:30:36.842Z,17.30
2018-04-11T10:33:04.303Z,17.30
2018-04-11T10:35:31.814Z,17.30
2018-04-11T10:37:59.316Z,17.40
2018-04-11T10:40:26.862Z,17.60
2018-04-11T10:42:54.419Z,17.70
2018-04-11T10:45:21.973Z,17.90
2018-04-11T10:47:49.457Z,17.90
2018-04-11T10:50:17.714Z,18.10
2018-04-11T10:52:45.356Z,18.10
2018-04-11T10:55:12.825Z,18.20
2018-04-11T10:57:40.379Z,18.20
2018-04-11T11:00:07.957Z,18.30
2018-04-11T11:02:36.934Z,18.00
2018-04-11T11:05:04.489Z,18.00
2018-04-11T11:07:32.046Z,18.00
2018-04-11T11:09:59.536Z,18.00
2018-04-11T11:12:27.765Z,17.70
2018-04-11T11:14:55.327Z,17.60
2018-04-11T11:17:22.990Z,17.50
2018-04-11T11:20:01.427Z,17.50
2018-04-11T11:22:28.878Z,17.40
2018-04-11T11:24:56.363Z,17.30
2018-04-11T11:27:23.893Z,17.20
2018-04-11T11:29:51.429Z,17.10
2018-04-11T11:32:18.882Z,17.00
2018-04-11T11:34:46.322Z,17.00
2018-04-11T11:37:13.808Z,16.90
2018-04-11T11:39:41.280Z,16.80
2018-04-11T11:42:08.822Z,16.70
2018-04-11T11:44:37.817Z,16.60
2018-04-11T11:47:05.354Z,16.60
2018-04-11T11:49:33.035Z,16.70
2018-04-11T11:52:00.512Z,17.00
2018-04-11T11:54:28.004Z,17.20
2018-04-11T11:56:55.469Z,17.40
2018-04-11T11:59:22.933Z,17.60
2018-04-11T12:01:50.400Z,17.70
2018-04-11T12:04:17.955Z,17.80
2018-04-11T12:06:45.426Z,17.70
2018-04-11T12:09:12.903Z,17.70
2018-04-11T12:11:41.184Z,17.50
2018-04-11T12:14:09.410Z,17.50
2018-04-11T12:16:36.888Z,17.50
2018-04-11T12:19:04.334Z,17.40
2018-04-11T12:21:31.810Z,17.30
2018-04-11T12:23:59.347Z,17.40
2018-04-11T12:26:26.900Z,17.50
2018-04-11T12:28:54.462Z,17.70
2018-04-11T12:31:21.909Z,17.90
2018-04-11T12:33:49.372Z,18.20
2018-04-11T12:36:16.859Z,18.40
2018-04-11T12:38:45.119Z,18.70
2018-04-11T12:41:12.567Z,18.70
2018-04-11T12:43:40.031Z,18.90
2018-04-11T12:46:07.575Z,19.10
2018-04-11T12:48:35.029Z,19.30
2018-04-11T12:51:02.489Z,19.60
2018-04-11T12:53:30.701Z,20.10
2018-04-11T12:55:58.225Z,20.10
2018-04-11T12:58:25.778Z,20.20
2018-04-11T13:00:53.318Z,20.10
2018-04-11T13:03:20.913Z,20.00
2018-04-11T13:05:48.365Z,19.80
2018-04-11T13:08:15.903Z,19.60
2018-04-11T13:10:43.454Z,19.50
2018-04-11T13:13:11.027Z,19.40
2018-04-11T13:15:38.578Z,19.30
2018-04-11T13:18:06.137Z,19.10
2018-04-11T13:20:33.610Z,19.00
2018-04-11T13:23:01.157Z,19.00
2018-04-11T13:25:28.695Z,19.10
2018-04-11T13:27:56.154Z,19.10
2018-04-11T13:30:23.626Z,19.30
2018-04-11T13:32:51.171Z,19.80
2018-04-11T13:35:18.623Z,20.20
2018-04-11T13:37:46.111Z,20.40
2018-04-11T13:40:14.376Z,20.20
2018-04-11T13:42:41.849Z,20.20
2018-04-11T13:45:10.089Z,20.10
2018-04-11T13:47:37.686Z,20.10
2018-04-11T13:50:05.989Z,20.20
2018-04-11T13:52:33.471Z,20.20
2018-04-11T13:55:00.931Z,20.00
2018-04-11T13:57:28.431Z,19.50
2018-04-11T13:59:55.951Z,19.00
2018-04-11T14:02:23.503Z,18.90
2018-04-11T14:04:50.959Z,18.60
2018-04-11T14:07:18.510Z,18.50
2018-04-11T14:09:45.975Z,18.50
2018-04-11T14:12:13.533Z,18.40
2018-04-11T14:14:40.997Z,18.30
2018-04-11T14:17:09.371Z,17.90
2018-04-11T14:19:36.811Z,17.90
2018-04-11T14:22:04.378Z,17.70
2018-04-11T14:24:31.858Z,17.40
2018-04-11T14:26:59.314Z,17.40
2018-04-11T14:29:26.766Z,17.40
2018-04-11T14:31:55.020Z,17.20
2018-04-11T14:34:22.573Z,17.20
2018-04-11T14:36:50.040Z,17.20
2018-04-11T14:39:17.585Z,17.10
2018-04-11T14:41:45.073Z,17.30
2018-04-11T14:44:13.309Z,17.50
2018-04-11T14:46:40.761Z,17.40
2018-04-11T14:49:08.231Z,17.50
2018-04-11T14:51:35.820Z,17.40
2018-04-11T14:54:04.048Z,17.10
2018-04-11T14:56:31.631Z,17.10
2018-04-11T14:58:59.100Z,17.00
2018-04-11T15:01:26.646Z,16.90
2018-04-11T15:03:54.202Z,16.90
2018-04-11T15:06:21.686Z,16.60
2018-04-11T15:08:49.902Z,16.40
2018-04-11T15:11:17.367Z,16.40
2018-04-11T15:13:44.945Z,16.50
2018-04-11T15:16:12.388Z,16.60
2018-04-11T15:18:39.848Z,16.70
2018-04-11T15:21:07.314Z,16.70
2018-04-11T15:23:34.756Z,16.70
2018-04-11T15:26:02.391Z,16.70
2018-04-11T15:28:29.827Z,16.70
2018-04-11T15:30:57.329Z,16.60
2018-04-11T15:33:24.793Z,16.50
2018-04-11T15:35:52.225Z,16.40
2018-04-11T15:38:19.796Z,16.30
2018-04-11T15:40:47.243Z,16.30
2018-04-11T15:43:14.844Z,16.10
2018-04-11T15:45:42.363Z,16.00
2018-04-11T15:48:09.824Z,16.00
2018-04-11T15:50:37.342Z,16.00
2018-04-11T15:53:04.846Z,15.90
2018-04-11T15:55:32.306Z,16.00
2018-04-11T15:57:59.851Z,16.00
2018-04-11T16:00:27.355Z,15.90
2018-04-11T16:02:55.565Z,15.90
2018-04-11T16:05:23.048Z,15.90
2018-04-11T16:07:50.490Z,15.80
2018-04-11T16:10:17.951Z,15.60
2018-04-11T16:12:45.516Z,15.50
2018-04-11T16:15:12.978Z,15.30
2018-04-11T16:17:40.456Z,15.20
2018-04-11T16:20:08.718Z,15.00
2018-04-11T16:22:36.162Z,15.00
2018-04-11T16:25:03.629Z,15.00
2018-04-11T16:27:31.903Z,14.90
2018-04-11T16:29:59.335Z,14.90
2018-04-11T16:32:26.891Z,14.80
2018-04-11T16:34:54.405Z,14.80
2018-04-11T16:37:21.895Z,14.70
2018-04-11T16:39:49.358Z,14.70
2018-04-11T16:42:16.933Z,14.70
2018-04-11T16:44:44.466Z,14.70
2018-04-11T16:47:11.917Z,14.70
2018-04-11T16:49:39.382Z,14.60
2018-04-11T16:52:06.977Z,14.60
2018-04-11T16:54:35.243Z,14.50
2018-04-11T16:57:03.600Z,14.60
2018-04-11T16:59:31.153Z,14.60
2018-04-11T17:01:58.711Z,14.60
2018-04-11T17:04:26.185Z,14.50
2018-04-11T17:06:53.634Z,14.50
2018-04-11T17:09:21.099Z,14.50
2018-04-11T17:11:48.550Z,14.50
2018-04-11T17:14:16.033Z,14.50
2018-04-11T17:16:44.595Z,14.40
2018-04-11T17:19:12.043Z,14.40
2018-04-11T17:21:51.506Z,14.40
2018-04-11T17:24:31.511Z,14.30
2018-04-11T17:27:11.060Z,14.30
2018-04-11T17:29:50.327Z,14.20
2018-04-11T17:32:17.782Z,14.20
2018-04-11T17:34:46.117Z,14.20
2018-04-11T17:37:13.574Z,14.20
2018-04-11T17:39:41.034Z,14.20
2018-04-11T17:42:08.526Z,14.20
2018-04-11T17:44:36.733Z,14.10
2018-04-11T17:47:04.234Z,14.10
2018-04-11T17:49:31.783Z,14.10
2018-04-11T17:51:59.366Z,14.10
2018-04-11T17:54:28.222Z,14.00
2018-04-11T17:56:56.464Z,14.00
2018-04-11T17:59:23.923Z,13.90
2018-04-11T18:01:51.403Z,13.90
2018-04-11T18:04:18.891Z,13.80
2018-04-11T18:06:47.121Z,13.50
2018-04-11T18:09:14.574Z,13.50
2018-04-11T18:11:42.041Z,13.40
2018-04-11T18:14:09.523Z,13.30
2018-04-11T18:16:37.059Z,13.20
2018-04-11T18:19:04.617Z,13.10
2018-04-11T18:21:32.131Z,13.00
2018-04-11T18:23:59.636Z,12.90
2018-04-11T18:26:27.062Z,12.90
2018-04-11T18:28:54.602Z,12.80
2018-04-11T18:31:22.059Z,12.70
2018-04-11T18:33:50.328Z,12.70
2018-04-11T18:36:17.834Z,12.70
2018-04-11T18:38:45.307Z,12.60
2018-04-11T18:41:13.558Z,12.50
2018-04-11T18:43:41.012Z,12.40
2018-04-11T18:46:08.689Z,12.40
2018-04-11T18:48:37.020Z,12.30
2018-04-11T18:51:04.615Z,12.20
2018-04-11T18:53:32.135Z,12.20
2018-04-11T18:55:59.626Z,12.20
2018-04-11T18:58:27.116Z,12.20
2018-04-11T19:00:55.332Z,12.30
2018-04-11T19:03:22.806Z,12.30
2018-04-11T19:05:50.291Z,12.30
2018-04-11T19:08:17.778Z,12.30
2018-04-11T19:10:45.217Z,12.20
2018-04-11T19:13:13.602Z,12.10
2018-04-11T19:15:41.026Z,12.00
2018-04-11T19:18:08.487Z,12.00
2018-04-11T19:20:37.062Z,11.90
2018-04-11T19:23:05.431Z,11.70
2018-04-11T19:25:32.979Z,11.70
2018-04-11T19:28:00.543Z,11.60
2018-04-11T19:30:28.027Z,11.40
2018-04-11T19:32:56.264Z,11.20
2018-04-11T19:35:23.736Z,11.20
2018-04-11T19:37:51.287Z,11.20
2018-04-11T19:40:19.564Z,11.00
2018-04-11T19:42:47.024Z,10.90
2018-04-11T19:45:14.475Z,10.90
2018-04-11T19:47:42.022Z,10.80
2018-04-11T19:50:09.532Z,10.70
2018-04-11T19:52:37.053Z,10.60
2018-04-11T19:55:04.616Z,10.50
2018-04-11T19:57:32.876Z,10.40
2018-04-11T20:00:00.346Z,10.40
2018-04-11T20:02:27.886Z,10.30
2018-04-11T20:04:55.371Z,10.30
2018-04-11T20:07:23.607Z,10.10
2018-04-11T20:09:51.071Z,10.10
2018-04-11T20:12:18.538Z,10.10
2018-04-11T20:14:46.010Z,10.00
2018-04-11T20:17:14.608Z,9.90
2018-04-11T20:19:42.123Z,9.90
2018-04-11T20:22:09.653Z,9.80
2018-04-11T20:24:37.144Z,9.80
2018-04-11T20:27:04.697Z,9.80
2018-04-11T20:29:32.257Z,9.70
2018-04-11T20:32:00.482Z,9.60
2018-04-11T20:34:27.984Z,9.60
2018-04-11T20:36:55.521Z,9.50
2018-04-11T20:39:23.090Z,9.50
2018-04-11T20:41:50.606Z,9.50
2018-04-11T20:44:18.127Z,9.40
2018-04-11T20:46:46.500Z,9.30
2018-04-11T20:49:14.783Z,9.30
2018-04-11T20:51:43.028Z,9.30
2018-04-11T20:54:10.479Z,9.20
2018-04-11T20:56:38.047Z,9.30
2018-04-11T20:59:06.490Z,9.20
2018-04-11T21:01:34.275Z,9.10
2018-04-11T21:04:01.763Z,9.10
2018-04-11T21:06:29.214Z,9.00
2018-04-11T21:08:56.692Z,9.00
2018-04-11T21:11:25.067Z,8.90
2018-04-11T21:13:53.369Z,8.90
2018-04-11T21:16:20.813Z,8.90
2018-04-11T21:18:48.338Z,8.90
2018-04-11T21:21:15.916Z,8.90
2018-04-11T21:23:54.787Z,8.90
2018-04-11T21:26:23.084Z,8.90
2018-04-11T21:28:50.658Z,8.90
2018-04-11T21:31:18.114Z,8.90
2018-04-11T21:33:46.374Z,8.90
2018-04-11T21:36:13.943Z,8.90
2018-04-11T21:38:42.194Z,9.10
2018-04-11T21:41:09.720Z,9.10
2018-04-11T21:43:37.198Z,9.10
2018-04-11T21:46:04.766Z,9.20
2018-04-11T21:48:32.326Z,9.30
2018-04-11T21:50:59.822Z,9.40
2018-04-11T21:53:27.248Z,9.50
2018-04-11T21:55:54.688Z,9.60
2018-04-11T21:58:22.174Z,9.60
2018-04-11T22:00:49.709Z,9.60
2018-04-11T22:03:17.261Z,9.60
2018-04-11T22:05:44.828Z,9.50
2018-04-11T22:08:12.291Z,9.40
2018-04-11T22:10:39.756Z,9.40
2018-04-11T22:13:07.222Z,9.30
2018-04-11T22:15:35.467Z,9.20
2018-04-11T22:18:02.942Z,9.20
2018-04-11T22:20:30.461Z,9.20
2018-04-11T22:22:58.067Z,9.10
2018-04-11T22:25:25.490Z,9.10
2018-04-11T22:27:53.046Z,9.10
2018-04-11T22:30:20.503Z,9.00
2018-04-11T22:32:47.974Z,9.00
2018-04-11T22:35:15.516Z,9.00
2018-04-11T22:37:43.078Z,9.00
2018-04-11T22:40:10.541Z,9.00
2018-04-11T22:42:38.800Z,9.10
2018-04-11T22:45:06.252Z,9.10
2018-04-11T22:47:33.705Z,9.20
2018-04-11T22:50:01.280Z,9.30
2018-04-11T22:52:28.745Z,9.30
2018-04-11T22:54:56.963Z,9.30
2018-04-11T22:57:24.486Z,9.30
2018-04-11T22:59:52.746Z,9.30
2018-04-11T23:02:21.021Z,9.40
2018-04-11T23:04:49.386Z,9.40
2018-04-11T23:07:16.840Z,9.40
2018-04-11T23:09:44.312Z,9.40
2018-04-11T23:12:11.786Z,9.50
2018-04-11T23:14:40.027Z,9.50
2018-04-11T23:17:07.480Z,9.50
2018-04-11T23:19:34.939Z,9.60
2018-04-11T23:22:02.392Z,9.70
2018-04-11T23:24:29.911Z,9.70
2018-04-11T23:26:57.419Z,9.70
2018-04-11T23:29:25.669Z,9.90
2018-04-11T23:31:53.132Z,9.80
2018-04-11T23:34:20.677Z,10.00
2018-04-11T23:36:48.155Z,10.10
2018-04-11T23:39:15.617Z,10.20
2018-04-11T23:41:43.154Z,10.20
2018-04-11T23:44:10.621Z,10.30
2018-04-11T23:46:38.093Z,10.30
2018-04-11T23:49:06.439Z,10.40
2018-04-11T23:51:33.902Z,10.30
2018-04-11T23:54:01.498Z,10.40
2018-04-11T23:56:29.038Z,10.30
2018-04-11T23:58:57.994Z,10.20
